Time;durP1;ratioP1;P1;durP2;ratioP2;P2;SDS_P1;SDS_P2;PMS_P1;PMS_P2;Temp;Humidity;BMP_temperature;BMP_pressure;BME280_temperature;BME280_humidity;BME280_pressure;Samples;Min_cycle;Max_cycle;Signal;HPM_P1;HPM_P2
2020/12/18 00:00:45;;;;;;;51.17;17.80;;;;;;;;;;5042254;28;20227;-79
2020/12/18 00:03:52;;;;;;;58.73;19.43;;;;;;;;;;5040150;28;20199;-79
2020/12/18 00:06:57;;;;;;;52.20;17.30;;;;;;;;;;5044473;28;20223;-79
2020/12/18 00:10:02;;;;;;;50.60;17.40;;;;;;;;;;5038689;28;20223;-79
2020/12/18 00:13:06;;;;;;;45.97;17.37;;;;;;;;;;5044694;28;20203;-79
2020/12/18 00:16:13;;;;;;;43.60;15.73;;;;;;;;;;5038537;28;20682;-79
2020/12/18 00:19:18;;;;;;;41.33;14.97;;;;;;;;;;5043053;28;20307;-79
2020/12/18 00:22:24;;;;;;;44.33;16.10;;;;;;;;;;5036030;28;20223;-79
2020/12/18 00:25:28;;;;;;;49.20;17.33;;;;;;;;;;5037757;28;20252;-79
2020/12/18 00:28:33;;;;;;;49.23;17.33;;;;;;;;;;5041003;28;20341;-79
2020/12/18 00:31:37;;;;;;;42.57;15.87;;;;;;;;;;5033709;28;20262;-79
2020/12/18 00:34:41;;;;;;;47.87;17.60;;;;;;;;;;5031386;28;20278;-79
2020/12/18 00:37:46;;;;;;;46.70;17.33;;;;;;;;;;5068396;28;20253;-77
2020/12/18 00:40:51;;;;;;;42.93;15.50;;;;;;;;;;5053925;28;20246;-79
2020/12/18 00:43:56;;;;;;;47.03;17.50;;;;;;;;;;5036753;28;20265;-79
2020/12/18 00:47:01;;;;;;;39.50;14.17;;;;;;;;;;5061986;28;20238;-78
2020/12/18 00:50:09;;;;;;;38.13;14.30;;;;;;;;;;5051363;28;20207;-79
2020/12/18 00:53:14;;;;;;;35.33;14.73;;;;;;;;;;5035092;28;20235;-79
2020/12/18 00:56:21;;;;;;;36.37;14.20;;;;;;;;;;5051158;28;20210;-78
2020/12/18 00:59:27;;;;;;;38.60;15.10;;;;;;;;;;5033422;28;20230;-78
2020/12/18 01:02:31;;;;;;;44.43;15.70;;;;;;;;;;5032627;28;20702;-78
2020/12/18 01:05:36;;;;;;;49.17;16.27;;;;;;;;;;5031414;28;20219;-78
2020/12/18 01:08:42;;;;;;;41.87;15.37;;;;;;;;;;5041906;28;20227;-79
2020/12/18 01:11:51;;;;;;;48.37;16.30;;;;;;;;;;5056308;28;20266;-77
2020/12/18 01:14:55;;;;;;;50.57;16.70;;;;;;;;;;5048429;28;20670;-78
2020/12/18 01:18:00;;;;;;;50.33;16.17;;;;;;;;;;5054670;28;20229;-78
2020/12/18 01:21:05;;;;;;;51.77;16.67;;;;;;;;;;5038449;28;20227;-78
2020/12/18 01:24:19;;;;;;;47.17;16.17;;;;;;;;;;5036417;28;20215;-78
2020/12/18 01:27:24;;;;;;;44.83;15.17;;;;;;;;;;5043089;28;20223;-78
2020/12/18 01:30:30;;;;;;;45.60;16.30;;;;;;;;;;5048572;28;20285;-78
2020/12/18 01:33:35;;;;;;;56.50;19.73;;;;;;;;;;5058582;28;20230;-78
2020/12/18 01:36:46;;;;;;;51.53;17.07;;;;;;;;;;5045351;28;20206;-78
2020/12/18 01:40:04;;;;;;;42.03;16.33;;;;;;;;;;5030438;28;20273;-78
2020/12/18 01:43:15;;;;;;;43.70;16.13;;;;;;;;;;5031978;28;20223;-77
2020/12/18 01:46:26;;;;;;;42.57;16.77;;;;;;;;;;5048477;28;20214;-77
2020/12/18 01:49:31;;;;;;;38.17;14.50;;;;;;;;;;5039828;28;20711;-77
2020/12/18 01:52:39;;;;;;;37.53;15.17;;;;;;;;;;5031747;28;20234;-77
2020/12/18 01:55:50;;;;;;;31.53;12.63;;;;;;;;;;5048951;28;20250;-77
2020/12/18 01:58:56;;;;;;;29.27;12.97;;;;;;;;;;5039881;28;20257;-77
2020/12/18 02:02:21;;;;;;;32.27;13.53;;;;;;;;;;5031737;28;20219;-77
2020/12/18 02:05:35;;;;;;;37.33;14.87;;;;;;;;;;5041098;28;20227;-77
2020/12/18 02:08:50;;;;;;;35.47;14.37;;;;;;;;;;5047960;28;20203;-77
2020/12/18 02:12:04;;;;;;;34.13;13.47;;;;;;;;;;5058974;28;20297;-77
2020/12/18 02:15:13;;;;;;;29.77;12.53;;;;;;;;;;5059738;28;20359;-77
2020/12/18 02:18:37;;;;;;;23.67;10.70;;;;;;;;;;5028935;28;20672;-77
2020/12/18 02:21:42;;;;;;;23.57;10.90;;;;;;;;;;5040315;28;20278;-77
2020/12/18 02:24:51;;;;;;;21.50;10.50;;;;;;;;;;5047621;28;20670;-77
2020/12/18 02:27:59;;;;;;;20.57;9.40;;;;;;;;;;5042656;28;20204;-77
2020/12/18 02:31:04;;;;;;;23.20;9.93;;;;;;;;;;5037237;28;20369;-77
2020/12/18 02:34:30;;;;;;;23.97;10.40;;;;;;;;;;5026153;28;20274;-77
2020/12/18 02:37:41;;;;;;;25.70;11.00;;;;;;;;;;5039889;28;20326;-77
2020/12/18 02:40:54;;;;;;;24.17;10.73;;;;;;;;;;5035581;28;20223;-77
2020/12/18 02:44:26;;;;;;;24.73;11.40;;;;;;;;;;5037734;28;20297;-78
2020/12/18 02:47:57;;;;;;;24.53;10.93;;;;;;;;;;5048591;28;20268;-78
2020/12/18 02:51:12;;;;;;;25.03;11.50;;;;;;;;;;5041063;28;20231;-78
2020/12/18 02:54:23;;;;;;;30.50;12.30;;;;;;;;;;5048695;28;20687;-77
2020/12/18 02:57:33;;;;;;;27.60;12.23;;;;;;;;;;5037111;28;20705;-77
2020/12/18 03:00:47;;;;;;;25.80;11.53;;;;;;;;;;5030555;28;20246;-77
2020/12/18 03:03:52;;;;;;;29.33;12.50;;;;;;;;;;5048240;28;20207;-78
2020/12/18 03:07:09;;;;;;;26.20;11.17;;;;;;;;;;5050914;28;20330;-78
2020/12/18 03:10:16;;;;;;;28.03;11.83;;;;;;;;;;5046251;28;21291;-78
2020/12/18 03:13:21;;;;;;;26.10;10.97;;;;;;;;;;5037462;28;20211;-77
2020/12/18 03:16:27;;;;;;;26.23;11.33;;;;;;;;;;5055683;28;20211;-77
2020/12/18 03:19:54;;;;;;;28.30;12.30;;;;;;;;;;5047547;28;20294;-77
2020/12/18 03:23:06;;;;;;;28.70;12.33;;;;;;;;;;5052043;28;20199;-77
2020/12/18 03:26:30;;;;;;;30.27;12.23;;;;;;;;;;5038222;28;20686;-77
2020/12/18 03:29:42;;;;;;;26.30;11.83;;;;;;;;;;5045367;28;20258;-77
2020/12/18 03:32:49;;;;;;;27.20;11.97;;;;;;;;;;5039991;28;20285;-77
2020/12/18 03:35:57;;;;;;;26.47;11.47;;;;;;;;;;5036393;28;20250;-77
2020/12/18 03:39:01;;;;;;;28.40;11.77;;;;;;;;;;5049727;28;20230;-77
2020/12/18 03:42:10;;;;;;;30.13;12.60;;;;;;;;;;5037982;28;20222;-77
2020/12/18 03:45:14;;;;;;;32.47;13.07;;;;;;;;;;5031995;28;20196;-77
2020/12/18 03:48:29;;;;;;;31.30;13.00;;;;;;;;;;5033550;28;20282;-77
2020/12/18 03:51:45;;;;;;;33.73;13.03;;;;;;;;;;5048066;28;20286;-77
2020/12/18 03:54:55;;;;;;;30.30;12.70;;;;;;;;;;5040048;28;20257;-77
2020/12/18 03:58:18;;;;;;;31.90;12.60;;;;;;;;;;5057530;28;20745;-77
2020/12/18 04:01:49;;;;;;;31.70;12.80;;;;;;;;;;5037255;28;20277;-77
2020/12/18 04:04:54;;;;;;;34.27;13.67;;;;;;;;;;5042644;28;20596;-77
2020/12/18 04:07:59;;;;;;;35.93;13.00;;;;;;;;;;5040977;28;20211;-77
2020/12/18 04:11:23;;;;;;;35.50;13.37;;;;;;;;;;5042661;28;20239;-77
2020/12/18 04:14:36;;;;;;;32.90;12.70;;;;;;;;;;5048609;28;20249;-77
2020/12/18 04:17:50;;;;;;;30.83;13.07;;;;;;;;;;5060169;28;20207;-78
2020/12/18 04:20:58;;;;;;;34.97;13.53;;;;;;;;;;5036191;28;20224;-78
2020/12/18 04:24:17;;;;;;;40.37;13.77;;;;;;;;;;5042849;28;20674;-78
2020/12/18 04:27:23;;;;;;;39.67;14.00;;;;;;;;;;5040615;28;20223;-78
2020/12/18 04:30:28;;;;;;;42.17;14.77;;;;;;;;;;5050518;28;20812;-77
2020/12/18 04:33:32;;;;;;;41.37;15.13;;;;;;;;;;5041581;28;20231;-78
2020/12/18 04:36:37;;;;;;;38.90;14.73;;;;;;;;;;5040651;28;20254;-78
2020/12/18 04:39:43;;;;;;;33.93;14.23;;;;;;;;;;5043446;28;20231;-78
2020/12/18 04:42:48;;;;;;;40.50;14.47;;;;;;;;;;5045343;28;20288;-78
2020/12/18 04:45:56;;;;;;;40.33;13.87;;;;;;;;;;5051033;28;20215;-78
2020/12/18 04:49:04;;;;;;;44.33;14.47;;;;;;;;;;5033435;28;20303;-78
2020/12/18 04:52:16;;;;;;;34.57;12.07;;;;;;;;;;5035926;28;20284;-78
2020/12/18 04:55:28;;;;;;;38.20;14.37;;;;;;;;;;5039272;28;20353;-77
2020/12/18 04:58:56;;;;;;;35.77;13.83;;;;;;;;;;5027992;28;20218;-78
2020/12/18 05:02:09;;;;;;;39.67;14.97;;;;;;;;;;5045064;28;20642;-77
2020/12/18 05:05:18;;;;;;;42.27;14.23;;;;;;;;;;5038990;28;20281;-77
2020/12/18 05:08:35;;;;;;;38.07;13.83;;;;;;;;;;5039949;28;20211;-78
2020/12/18 05:11:40;;;;;;;42.37;14.53;;;;;;;;;;5040777;28;20311;-78
2020/12/18 05:14:50;;;;;;;38.00;14.47;;;;;;;;;;5051916;28;20207;-78
2020/12/18 05:18:06;;;;;;;40.13;14.40;;;;;;;;;;5046326;28;20215;-77
2020/12/18 05:21:12;;;;;;;32.17;13.03;;;;;;;;;;5055425;28;20231;-78
2020/12/18 05:24:27;;;;;;;28.37;11.10;;;;;;;;;;5057517;28;20219;-78
2020/12/18 05:27:32;;;;;;;31.73;11.67;;;;;;;;;;5064884;28;20269;-78
2020/12/18 05:30:37;;;;;;;29.33;11.90;;;;;;;;;;5054061;28;20278;-79
2020/12/18 05:34:02;;;;;;;28.57;11.43;;;;;;;;;;5058521;28;20216;-78
2020/12/18 05:37:19;;;;;;;22.90;10.20;;;;;;;;;;5072821;28;20210;-78
2020/12/18 05:40:38;;;;;;;27.07;11.83;;;;;;;;;;5055235;28;20213;-78
2020/12/18 05:44:09;;;;;;;26.93;10.60;;;;;;;;;;5054896;28;20211;-79
2020/12/18 05:47:52;;;;;;;38.13;11.73;;;;;;;;;;5037998;28;20219;-79
2020/12/18 05:50:57;;;;;;;40.10;11.33;;;;;;;;;;5039770;28;20234;-79
2020/12/18 05:54:07;;;;;;;26.53;10.83;;;;;;;;;;5048141;28;20314;-79
2020/12/18 05:57:15;;;;;;;28.67;11.53;;;;;;;;;;5040696;28;20207;-79
2020/12/18 06:00:28;;;;;;;30.40;11.40;;;;;;;;;;5035458;28;20261;-79
2020/12/18 06:03:58;;;;;;;37.00;11.63;;;;;;;;;;5049439;28;20288;-79
2020/12/18 06:07:03;;;;;;;29.57;12.23;;;;;;;;;;5061103;28;20277;-79
2020/12/18 06:10:34;;;;;;;23.43;10.47;;;;;;;;;;5061268;28;20287;-79
2020/12/18 06:14:02;;;;;;;24.23;10.30;;;;;;;;;;5048347;28;20215;-79
2020/12/18 06:17:29;;;;;;;24.00;10.80;;;;;;;;;;5032731;28;20200;-79
2020/12/18 06:20:44;;;;;;;22.13;10.40;;;;;;;;;;5055591;28;20207;-78
2020/12/18 06:23:54;;;;;;;25.60;11.20;;;;;;;;;;5045650;28;20211;-78
2020/12/18 06:27:15;;;;;;;25.07;10.97;;;;;;;;;;5052278;28;20203;-79
2020/12/18 06:30:32;;;;;;;27.33;11.40;;;;;;;;;;5049218;28;20219;-79
2020/12/18 06:33:58;;;;;;;31.67;10.67;;;;;;;;;;5040986;28;20702;-79
2020/12/18 06:37:31;;;;;;;24.50;10.50;;;;;;;;;;5055833;28;20250;-78
2020/12/18 06:40:53;;;;;;;26.73;11.10;;;;;;;;;;5042629;28;20561;-79
2020/12/18 06:44:43;;;;;;;23.60;10.20;;;;;;;;;;5046919;28;20570;-79
2020/12/18 06:48:21;;;;;;;25.37;10.30;;;;;;;;;;5031940;28;20211;-79
2020/12/18 06:51:47;;;;;;;24.50;11.10;;;;;;;;;;5054131;28;20749;-79
2020/12/18 06:55:13;;;;;;;20.43;9.27;;;;;;;;;;5052573;28;20222;-79
2020/12/18 06:58:37;;;;;;;28.17;9.87;;;;;;;;;;5026002;28;20247;-79
2020/12/18 07:01:41;;;;;;;21.57;9.33;;;;;;;;;;5028358;28;20263;-79
2020/12/18 07:04:46;;;;;;;19.67;8.90;;;;;;;;;;5037500;28;20590;-79
2020/12/18 07:07:51;;;;;;;18.53;8.73;;;;;;;;;;5043584;28;20237;-79
2020/12/18 07:11:00;;;;;;;17.27;8.40;;;;;;;;;;5037261;28;20316;-79
2020/12/18 07:14:04;;;;;;;15.73;7.50;;;;;;;;;;5053757;28;20242;-78
2020/12/18 07:17:11;;;;;;;18.43;8.00;;;;;;;;;;5032804;28;20188;-78
2020/12/18 07:20:16;;;;;;;17.50;8.27;;;;;;;;;;5057588;28;20247;-79
2020/12/18 07:23:22;;;;;;;16.60;8.47;;;;;;;;;;5036025;28;20263;-79
2020/12/18 07:26:27;;;;;;;17.17;8.50;;;;;;;;;;5045541;28;20661;-79
2020/12/18 07:29:32;;;;;;;17.47;8.70;;;;;;;;;;5041294;28;20242;-79
2020/12/18 07:32:36;;;;;;;21.10;9.23;;;;;;;;;;5053083;28;20237;-79
2020/12/18 07:35:42;;;;;;;16.33;8.47;;;;;;;;;;5043653;28;20215;-78
2020/12/18 07:38:48;;;;;;;17.93;8.43;;;;;;;;;;5039366;28;20285;-79
2020/12/18 07:42:01;;;;;;;19.50;9.00;;;;;;;;;;5031447;28;20433;-79
2020/12/18 07:45:06;;;;;;;17.40;8.77;;;;;;;;;;5066171;22;20241;-74
2020/12/18 07:48:12;;;;;;;17.67;7.73;;;;;;;;;;5059191;28;20226;-72
2020/12/18 07:51:19;;;;;;;15.47;7.73;;;;;;;;;;5045435;28;20423;-75
2020/12/18 07:54:24;;;;;;;18.53;7.70;;;;;;;;;;5032462;28;20254;-73
2020/12/18 07:57:29;;;;;;;11.53;6.37;;;;;;;;;;5055486;28;20717;-73
2020/12/18 08:00:34;;;;;;;12.77;6.63;;;;;;;;;;5049779;28;20264;-72
2020/12/18 08:03:39;;;;;;;10.87;5.77;;;;;;;;;;5030562;28;20231;-73
2020/12/18 08:06:44;;;;;;;13.10;6.17;;;;;;;;;;5039509;28;20234;-72
2020/12/18 08:09:58;;;;;;;15.60;6.30;;;;;;;;;;5042752;28;20207;-72
2020/12/18 08:13:03;;;;;;;10.27;5.70;;;;;;;;;;5037676;28;20226;-73
2020/12/18 08:16:09;;;;;;;12.27;5.83;;;;;;;;;;5041866;28;20251;-71
2020/12/18 08:19:14;;;;;;;9.90;5.63;;;;;;;;;;5037988;28;20203;-72
2020/12/18 08:22:20;;;;;;;10.47;5.53;;;;;;;;;;5035014;28;20235;-74
2020/12/18 08:25:26;;;;;;;11.73;6.10;;;;;;;;;;5041088;28;20235;-75
2020/12/18 08:28:31;;;;;;;11.17;5.97;;;;;;;;;;5044320;28;20258;-75
2020/12/18 08:31:36;;;;;;;19.33;6.77;;;;;;;;;;5036663;28;20330;-74
2020/12/18 08:34:41;;;;;;;15.80;6.60;;;;;;;;;;5051227;28;20230;-73
2020/12/18 08:37:45;;;;;;;16.10;6.73;;;;;;;;;;5058481;28;20283;-74
2020/12/18 08:40:56;;;;;;;13.47;6.40;;;;;;;;;;5056833;28;20243;-73
2020/12/18 08:44:06;;;;;;;14.03;6.37;;;;;;;;;;5063794;28;20275;-74
2020/12/18 08:47:20;;;;;;;14.17;6.47;;;;;;;;;;5056561;28;20199;-73
2020/12/18 08:50:26;;;;;;;14.80;7.60;;;;;;;;;;5044323;28;20817;-74
2020/12/18 08:53:33;;;;;;;19.07;7.40;;;;;;;;;;5030894;28;20358;-75
2020/12/18 08:56:39;;;;;;;13.53;7.00;;;;;;;;;;5040637;28;20211;-73
2020/12/18 09:00:00;;;;;;;12.43;7.00;;;;;;;;;;5032805;28;20275;-75
2020/12/18 09:03:05;;;;;;;13.63;6.67;;;;;;;;;;5035616;28;20710;-74
2020/12/18 09:06:10;;;;;;;14.80;7.03;;;;;;;;;;5039006;28;20265;-74
2020/12/18 09:09:24;;;;;;;14.63;6.80;;;;;;;;;;5032377;28;20214;-74
2020/12/18 09:12:38;;;;;;;12.97;6.57;;;;;;;;;;5027965;28;20220;-72
2020/12/18 09:15:43;;;;;;;15.60;7.80;;;;;;;;;;5029910;28;20627;-73
2020/12/18 09:18:52;;;;;;;13.70;6.97;;;;;;;;;;5031687;28;20681;-74
2020/12/18 09:22:02;;;;;;;13.40;6.63;;;;;;;;;;5034641;28;20629;-74
2020/12/18 09:25:07;;;;;;;15.30;7.87;;;;;;;;;;5042607;28;20266;-74
2020/12/18 09:28:17;;;;;;;17.13;8.07;;;;;;;;;;5033913;28;20250;-75
2020/12/18 09:31:23;;;;;;;25.00;9.90;;;;;;;;;;5026250;28;20231;-74
2020/12/18 09:34:30;;;;;;;23.77;9.47;;;;;;;;;;5029706;28;20231;-75
2020/12/18 09:37:35;;;;;;;25.83;10.70;;;;;;;;;;5030523;28;20208;-74
2020/12/18 09:40:39;;;;;;;26.73;11.87;;;;;;;;;;5029077;28;20266;-74
2020/12/18 09:43:45;;;;;;;25.80;10.47;;;;;;;;;;5027507;28;20703;-74
2020/12/18 09:46:51;;;;;;;28.77;10.30;;;;;;;;;;5035792;28;20199;-75
2020/12/18 09:49:56;;;;;;;21.40;10.10;;;;;;;;;;5035414;28;20265;-75
2020/12/18 09:53:00;;;;;;;20.37;9.93;;;;;;;;;;5034344;28;20227;-74
2020/12/18 09:56:08;;;;;;;20.87;9.23;;;;;;;;;;5026335;28;20334;-75
2020/12/18 09:59:13;;;;;;;21.20;9.60;;;;;;;;;;5022958;28;20276;-75
2020/12/18 10:02:18;;;;;;;21.77;9.90;;;;;;;;;;5026465;28;20242;-75
2020/12/18 10:05:24;;;;;;;25.67;11.33;;;;;;;;;;5025073;28;20215;-74
2020/12/18 10:08:29;;;;;;;27.77;12.30;;;;;;;;;;5035633;28;20203;-75
2020/12/18 10:11:33;;;;;;;27.80;11.83;;;;;;;;;;5036623;28;20223;-73
2020/12/18 10:14:39;;;;;;;33.57;13.63;;;;;;;;;;5049767;28;20195;-74
2020/12/18 10:17:44;;;;;;;38.43;17.17;;;;;;;;;;5051358;28;20261;-72
2020/12/18 10:20:49;;;;;;;20.70;9.83;;;;;;;;;;5032502;28;20235;-74
2020/12/18 10:23:54;;;;;;;23.97;10.87;;;;;;;;;;5037620;28;20236;-74
2020/12/18 10:26:58;;;;;;;25.67;9.87;;;;;;;;;;5031956;28;20249;-75
2020/12/18 10:30:05;;;;;;;19.53;9.20;;;;;;;;;;5036064;28;20706;-75
2020/12/18 10:33:09;;;;;;;20.37;9.60;;;;;;;;;;5034201;28;20285;-76
2020/12/18 10:36:14;;;;;;;19.60;9.53;;;;;;;;;;5034908;28;20195;-76
2020/12/18 10:39:23;;;;;;;21.57;9.60;;;;;;;;;;5038908;28;20219;-76
2020/12/18 10:42:28;;;;;;;20.67;10.47;;;;;;;;;;5039455;28;20231;-75
2020/12/18 10:45:34;;;;;;;18.93;9.13;;;;;;;;;;5045478;28;20242;-74
2020/12/18 10:48:39;;;;;;;20.27;9.63;;;;;;;;;;5051615;28;20226;-75
2020/12/18 10:51:45;;;;;;;23.67;10.00;;;;;;;;;;5067357;28;20223;-75
2020/12/18 10:54:52;;;;;;;23.80;9.63;;;;;;;;;;5033864;28;20206;-76
2020/12/18 10:57:57;;;;;;;19.90;8.93;;;;;;;;;;5033222;28;20381;-76
2020/12/18 11:01:03;;;;;;;24.33;9.90;;;;;;;;;;5033982;28;20247;-74
2020/12/18 11:04:07;;;;;;;23.00;9.50;;;;;;;;;;5035351;28;20223;-74
2020/12/18 11:07:12;;;;;;;20.27;9.73;;;;;;;;;;5024921;28;20254;-76
2020/12/18 11:10:16;;;;;;;20.37;9.07;;;;;;;;;;5033032;28;20331;-75
2020/12/18 11:13:22;;;;;;;22.97;10.20;;;;;;;;;;5041004;28;20227;-75
2020/12/18 11:16:27;;;;;;;21.13;9.50;;;;;;;;;;5030399;28;20218;-75
2020/12/18 11:19:31;;;;;;;24.07;10.50;;;;;;;;;;5043960;28;20345;-76
2020/12/18 11:22:49;;;;;;;25.27;10.37;;;;;;;;;;5032704;28;20312;-75
2020/12/18 11:26:18;;;;;;;20.00;9.97;;;;;;;;;;5042649;28;20211;-75
2020/12/18 11:29:24;;;;;;;23.23;10.47;;;;;;;;;;5043704;28;20215;-75
2020/12/18 11:32:29;;;;;;;25.03;10.20;;;;;;;;;;5030033;28;20299;-76
2020/12/18 11:35:34;;;;;;;23.50;9.80;;;;;;;;;;5021063;28;20351;-77
2020/12/18 11:38:39;;;;;;;22.67;10.30;;;;;;;;;;5031335;28;20226;-75
2020/12/18 11:41:44;;;;;;;23.07;10.70;;;;;;;;;;5031150;28;20227;-75
2020/12/18 11:44:48;;;;;;;33.43;13.67;;;;;;;;;;5038020;28;20223;-76
2020/12/18 11:47:53;;;;;;;22.47;10.37;;;;;;;;;;5033937;28;20651;-76
2020/12/18 11:50:59;;;;;;;27.73;11.97;;;;;;;;;;5025712;28;20726;-75
2020/12/18 11:54:04;;;;;;;24.30;11.43;;;;;;;;;;5030817;28;20250;-75
2020/12/18 11:57:09;;;;;;;24.47;11.83;;;;;;;;;;5030762;28;20671;-74
2020/12/18 12:00:13;;;;;;;26.03;10.57;;;;;;;;;;5046760;28;20207;-75
2020/12/18 12:03:19;;;;;;;25.83;10.97;;;;;;;;;;5032619;28;20219;-74
2020/12/18 12:06:23;;;;;;;24.23;10.40;;;;;;;;;;5042207;28;20397;-75
2020/12/18 12:09:28;;;;;;;24.83;10.37;;;;;;;;;;5037846;28;20255;-76
2020/12/18 12:12:32;;;;;;;27.77;11.00;;;;;;;;;;5042587;28;20234;-75
2020/12/18 12:15:37;;;;;;;25.07;10.93;;;;;;;;;;5031993;28;20207;-75
2020/12/18 12:18:44;;;;;;;24.93;10.43;;;;;;;;;;5030667;28;20208;-75
2020/12/18 12:21:49;;;;;;;24.80;10.20;;;;;;;;;;5028417;28;20227;-74
2020/12/18 12:24:55;;;;;;;33.43;11.97;;;;;;;;;;5024324;28;20216;-74
2020/12/18 12:28:00;;;;;;;25.03;11.43;;;;;;;;;;5026532;28;20366;-76
2020/12/18 12:31:05;;;;;;;23.77;10.37;;;;;;;;;;5029730;28;20573;-76
2020/12/18 12:34:10;;;;;;;28.27;11.53;;;;;;;;;;5026282;28;20211;-75
2020/12/18 12:37:16;;;;;;;28.80;11.20;;;;;;;;;;5042065;28;20258;-75
2020/12/18 12:40:21;;;;;;;23.77;10.70;;;;;;;;;;5028684;28;20199;-75
2020/12/18 12:43:25;;;;;;;22.70;10.70;;;;;;;;;;5041214;28;20255;-73
2020/12/18 12:46:36;;;;;;;22.57;11.07;;;;;;;;;;5034067;28;20658;-75
2020/12/18 12:49:42;;;;;;;20.10;10.43;;;;;;;;;;5033965;28;20224;-75
2020/12/18 12:52:47;;;;;;;22.23;11.03;;;;;;;;;;5031595;28;20266;-74
2020/12/18 12:55:51;;;;;;;23.13;10.87;;;;;;;;;;5023556;28;20235;-75
2020/12/18 12:58:56;;;;;;;27.23;11.57;;;;;;;;;;5030578;28;20266;-75
2020/12/18 13:02:01;;;;;;;23.80;11.20;;;;;;;;;;5028743;28;20794;-75
2020/12/18 13:05:06;;;;;;;25.13;10.50;;;;;;;;;;5030322;28;20687;-75
2020/12/18 13:08:11;;;;;;;27.20;12.13;;;;;;;;;;5038519;28;20227;-76
2020/12/18 13:11:16;;;;;;;25.47;11.97;;;;;;;;;;5028994;28;20787;-74
2020/12/18 13:14:20;;;;;;;22.30;10.70;;;;;;;;;;5029923;28;20199;-74
2020/12/18 13:17:28;;;;;;;26.37;11.63;;;;;;;;;;5031113;28;20230;-72
2020/12/18 13:20:35;;;;;;;24.20;11.57;;;;;;;;;;5031093;28;20207;-74
2020/12/18 13:23:40;;;;;;;27.47;12.43;;;;;;;;;;5038284;28;20203;-73
2020/12/18 13:26:44;;;;;;;21.30;11.03;;;;;;;;;;5030417;28;20211;-73
2020/12/18 13:29:49;;;;;;;25.17;12.10;;;;;;;;;;5035905;28;20211;-74
2020/12/18 13:32:54;;;;;;;29.73;12.03;;;;;;;;;;5033691;28;20276;-74
2020/12/18 13:36:00;;;;;;;24.60;11.10;;;;;;;;;;5028393;28;20223;-75
2020/12/18 13:39:05;;;;;;;29.17;12.73;;;;;;;;;;5040577;28;20290;-73
2020/12/18 13:42:11;;;;;;;32.63;12.37;;;;;;;;;;5029080;28;20226;-73
2020/12/18 13:45:16;;;;;;;28.57;12.07;;;;;;;;;;5030072;28;20219;-73
2020/12/18 13:48:20;;;;;;;35.40;15.80;;;;;;;;;;5040012;28;20249;-72
2020/12/18 13:51:26;;;;;;;38.73;15.97;;;;;;;;;;5025687;28;20663;-72
2020/12/18 13:54:31;;;;;;;28.70;12.97;;;;;;;;;;5024242;28;20263;-72
2020/12/18 13:57:35;;;;;;;35.13;14.43;;;;;;;;;;5030779;28;20216;-74
2020/12/18 14:00:44;;;;;;;29.50;12.50;;;;;;;;;;5030577;28;20231;-74
2020/12/18 14:03:48;;;;;;;29.53;12.03;;;;;;;;;;5037125;28;20666;-74
2020/12/18 14:06:57;;;;;;;27.87;11.97;;;;;;;;;;5035016;28;20235;-74
2020/12/18 14:10:02;;;;;;;26.60;11.20;;;;;;;;;;5027841;28;20578;-74
2020/12/18 14:13:11;;;;;;;26.50;11.97;;;;;;;;;;5036639;28;20343;-74
2020/12/18 14:16:15;;;;;;;27.77;12.10;;;;;;;;;;5039417;28;20211;-75
2020/12/18 14:19:21;;;;;;;33.10;12.83;;;;;;;;;;5043286;28;20766;-75
2020/12/18 14:22:27;;;;;;;23.70;11.43;;;;;;;;;;5030595;28;20239;-75
2020/12/18 14:25:33;;;;;;;30.40;11.43;;;;;;;;;;5035380;28;20690;-74
2020/12/18 14:28:37;;;;;;;26.97;12.10;;;;;;;;;;5036161;28;20617;-74
2020/12/18 14:31:42;;;;;;;27.93;11.40;;;;;;;;;;5031593;28;20239;-73
2020/12/18 14:34:47;;;;;;;26.27;12.23;;;;;;;;;;5038415;28;20214;-76
2020/12/18 14:37:53;;;;;;;28.40;12.33;;;;;;;;;;5037602;28;20196;-74
2020/12/18 14:40:58;;;;;;;34.50;13.33;;;;;;;;;;5034770;28;20262;-75
2020/12/18 14:44:03;;;;;;;42.77;13.43;;;;;;;;;;5046550;28;20218;-74
2020/12/18 14:47:08;;;;;;;28.13;12.47;;;;;;;;;;5049905;28;20227;-74
2020/12/18 14:50:13;;;;;;;29.20;12.50;;;;;;;;;;5046833;28;20204;-74
2020/12/18 14:53:19;;;;;;;34.90;14.00;;;;;;;;;;5039024;28;20223;-75
2020/12/18 14:56:24;;;;;;;35.83;15.33;;;;;;;;;;5029876;28;20215;-75
2020/12/18 14:59:28;;;;;;;28.53;12.93;;;;;;;;;;5031912;28;20274;-74
2020/12/18 15:02:33;;;;;;;36.50;13.30;;;;;;;;;;5031491;28;20282;-75
2020/12/18 15:05:38;;;;;;;32.27;13.47;;;;;;;;;;5032475;28;20820;-74
2020/12/18 15:08:44;;;;;;;32.43;13.43;;;;;;;;;;5030201;28;20234;-73
2020/12/18 15:11:48;;;;;;;29.20;12.70;;;;;;;;;;5023298;28;20283;-74
2020/12/18 15:14:53;;;;;;;37.83;14.17;;;;;;;;;;5030042;28;20265;-73
2020/12/18 15:17:58;;;;;;;32.17;13.30;;;;;;;;;;5032009;28;20733;-73
2020/12/18 15:21:02;;;;;;;34.87;14.20;;;;;;;;;;5029787;28;20490;-74
2020/12/18 15:24:08;;;;;;;41.00;16.67;;;;;;;;;;5032682;28;20238;-74
2020/12/18 15:27:13;;;;;;;37.63;15.87;;;;;;;;;;5030037;28;20263;-73
2020/12/18 15:30:17;;;;;;;34.57;14.23;;;;;;;;;;5039800;28;20235;-73
2020/12/18 15:33:22;;;;;;;33.33;14.00;;;;;;;;;;5043335;28;20223;-73
2020/12/18 15:36:26;;;;;;;35.63;15.13;;;;;;;;;;5030647;28;20278;-74
2020/12/18 15:39:33;;;;;;;36.40;15.33;;;;;;;;;;5037449;28;20590;-73
2020/12/18 15:42:38;;;;;;;42.27;14.73;;;;;;;;;;5035820;28;20286;-73
2020/12/18 15:45:43;;;;;;;37.40;15.73;;;;;;;;;;5030995;28;20235;-73
2020/12/18 15:48:47;;;;;;;35.77;14.37;;;;;;;;;;5045498;28;20231;-73
2020/12/18 15:51:52;;;;;;;35.07;15.00;;;;;;;;;;5043569;28;20247;-73
2020/12/18 15:54:58;;;;;;;37.33;14.17;;;;;;;;;;5036605;28;20230;-73
2020/12/18 15:58:02;;;;;;;36.97;15.10;;;;;;;;;;5042385;28;20354;-73
2020/12/18 16:01:07;;;;;;;38.60;16.20;;;;;;;;;;5032424;28;20303;-73
2020/12/18 16:04:11;;;;;;;34.67;14.23;;;;;;;;;;5026631;28;20200;-71
2020/12/18 16:07:16;;;;;;;40.50;13.77;;;;;;;;;;5033411;28;20208;-70
2020/12/18 16:10:22;;;;;;;35.87;14.43;;;;;;;;;;5027965;28;20187;-73
2020/12/18 16:13:28;;;;;;;34.07;13.83;;;;;;;;;;5037831;28;20720;-73
2020/12/18 16:16:33;;;;;;;34.43;14.33;;;;;;;;;;5029512;28;20346;-74
2020/12/18 16:19:38;;;;;;;35.13;14.17;;;;;;;;;;5041164;28;20247;-73
2020/12/18 16:22:43;;;;;;;33.80;14.07;;;;;;;;;;5037414;28;20793;-73
2020/12/18 16:25:48;;;;;;;40.00;14.30;;;;;;;;;;5031053;28;20637;-73
2020/12/18 16:28:53;;;;;;;35.27;14.03;;;;;;;;;;5030252;28;20204;-73
2020/12/18 16:32:01;;;;;;;38.40;14.00;;;;;;;;;;5040462;28;20315;-73
2020/12/18 16:35:06;;;;;;;39.93;14.77;;;;;;;;;;5028542;28;20270;-73
2020/12/18 16:38:11;;;;;;;36.23;14.93;;;;;;;;;;5040698;28;20207;-73
2020/12/18 16:41:43;;;;;;;39.00;14.50;;;;;;;;;;5033144;28;20234;-74
2020/12/18 16:44:49;;;;;;;34.40;14.00;;;;;;;;;;5037598;28;20319;-73
2020/12/18 16:47:54;;;;;;;42.13;15.37;;;;;;;;;;5040806;28;20326;-73
2020/12/18 16:50:59;;;;;;;34.90;14.17;;;;;;;;;;5038405;28;20223;-74
2020/12/18 16:54:03;;;;;;;45.13;14.60;;;;;;;;;;5029600;28;20227;-74
2020/12/18 16:57:08;;;;;;;38.83;14.30;;;;;;;;;;5029061;28;20218;-74
2020/12/18 17:00:14;;;;;;;34.47;13.87;;;;;;;;;;5030002;28;20305;-73
2020/12/18 17:03:19;;;;;;;50.73;15.53;;;;;;;;;;5028610;28;20666;-74
2020/12/18 17:06:24;;;;;;;35.83;14.33;;;;;;;;;;5035949;28;20216;-73
2020/12/18 17:09:29;;;;;;;38.03;14.80;;;;;;;;;;5040864;28;20261;-74
2020/12/18 17:12:34;;;;;;;40.13;14.10;;;;;;;;;;5039852;28;20270;-75
2020/12/18 17:15:40;;;;;;;39.57;14.27;;;;;;;;;;5042290;28;20878;-74
2020/12/18 17:18:45;;;;;;;38.47;14.63;;;;;;;;;;5048247;28;20206;-75
2020/12/18 17:21:50;;;;;;;37.70;14.80;;;;;;;;;;5045242;28;20246;-74
2020/12/18 17:24:55;;;;;;;45.87;15.80;;;;;;;;;;5031314;28;20211;-75
2020/12/18 17:28:00;;;;;;;36.93;14.10;;;;;;;;;;5047280;28;20306;-77
2020/12/18 17:31:06;;;;;;;40.50;15.57;;;;;;;;;;5035491;28;20226;-77
2020/12/18 17:34:11;;;;;;;39.53;15.23;;;;;;;;;;5046598;28;20218;-76
2020/12/18 17:37:17;;;;;;;38.17;15.33;;;;;;;;;;5051001;28;20282;-75
2020/12/18 17:40:23;;;;;;;41.07;14.50;;;;;;;;;;5063073;28;20230;-74
2020/12/18 17:43:28;;;;;;;43.63;15.13;;;;;;;;;;5054556;28;20219;-77
2020/12/18 17:46:34;;;;;;;42.57;14.70;;;;;;;;;;5035215;28;20230;-74
2020/12/18 17:49:39;;;;;;;38.60;14.30;;;;;;;;;;5033677;28;20334;-74
2020/12/18 17:52:43;;;;;;;40.23;15.30;;;;;;;;;;5041975;28;20226;-75
2020/12/18 17:55:49;;;;;;;40.03;14.50;;;;;;;;;;5030593;28;20214;-77
2020/12/18 17:58:54;;;;;;;42.87;14.57;;;;;;;;;;5040093;28;20257;-76
2020/12/18 18:02:00;;;;;;;41.40;15.00;;;;;;;;;;5032627;28;20231;-74
2020/12/18 18:05:05;;;;;;;48.73;15.43;;;;;;;;;;5031470;28;20215;-75
2020/12/18 18:08:10;;;;;;;39.13;14.13;;;;;;;;;;5034188;28;20247;-77
2020/12/18 18:11:20;;;;;;;39.53;13.90;;;;;;;;;;5035145;28;20228;-75
2020/12/18 18:14:25;;;;;;;41.67;13.63;;;;;;;;;;5037370;28;20192;-74
2020/12/18 18:17:31;;;;;;;38.57;14.50;;;;;;;;;;5044331;28;20250;-74